Time;durP1;ratioP1;P1;durP2;ratioP2;P2;SDS_P1;SDS_P2;PMS_P1;PMS_P2;Temp;Humidity;BMP_temperature;BMP_pressure;BME280_temperature;BME280_humidity;BME280_pressure;Samples;Min_cycle;Max_cycle;Signal;HPM_P1;HPM_P2
2022/04/09 00:02:51;;;;;;;2.10;2.10;;;4.90;99.90;;;;;;10395774;28;20233;-82
2022/04/09 00:07:53;;;;;;;2.20;2.20;;;5.00;99.90;;;;;;10391312;28;20236;-81
2022/04/09 00:12:57;;;;;;;2.50;2.40;;;5.00;99.90;;;;;;10409850;28;20894;-81
2022/04/09 00:17:59;;;;;;;2.40;2.30;;;5.10;99.90;;;;;;10384417;28;20578;-82
2022/04/09 00:23:01;;;;;;;2.50;2.50;;;5.20;99.90;;;;;;10393400;28;20534;-82
2022/04/09 00:28:05;;;;;;;2.80;2.70;;;5.20;99.90;;;;;;10407975;28;20197;-82
2022/04/09 00:33:08;;;;;;;2.90;2.80;;;5.30;99.90;;;;;;10403193;28;20312;-82
2022/04/09 00:38:10;;;;;;;2.70;2.60;;;5.30;99.90;;;;;;10405394;28;20205;-82
2022/04/09 00:43:15;;;;;;;2.53;2.43;;;5.40;99.90;;;;;;10401062;28;20213;-82
2022/04/09 00:48:20;;;;;;;2.33;2.33;;;5.40;99.90;;;;;;10404678;28;20201;-83
2022/04/09 00:53:24;;;;;;;2.73;2.63;;;5.50;99.90;;;;;;10388259;28;20274;-83
2022/04/09 00:58:30;;;;;;;3.03;2.93;;;5.50;99.90;;;;;;10403606;28;20198;-83
2022/04/09 01:03:35;;;;;;;2.90;2.80;;;5.50;99.90;;;;;;10397892;28;20674;-82
2022/04/09 01:08:37;;;;;;;2.80;2.70;;;5.50;99.90;;;;;;10401017;28;20710;-82
2022/04/09 01:13:41;;;;;;;3.10;2.90;;;5.50;99.90;;;;;;10387077;28;20236;-82
2022/04/09 01:18:43;;;;;;;2.80;2.70;;;5.50;99.90;;;;;;10400914;28;20225;-81
2022/04/09 01:23:50;;;;;;;2.93;2.80;;;5.50;99.90;;;;;;10384152;28;20186;-80
2022/04/09 01:28:52;;;;;;;3.03;2.93;;;5.50;99.90;;;;;;10379854;28;20233;-80
2022/04/09 01:33:55;;;;;;;3.40;3.20;;;5.50;99.90;;;;;;10393931;28;20221;-80
2022/04/09 01:38:59;;;;;;;3.53;3.33;;;5.60;99.90;;;;;;10383282;28;20228;-81
2022/04/09 01:44:01;;;;;;;3.87;3.67;;;5.60;99.90;;;;;;10398683;28;20198;-81
2022/04/09 01:49:05;;;;;;;4.13;3.93;;;5.60;99.90;;;;;;10397895;28;20260;-81
2022/04/09 01:54:08;;;;;;;4.57;4.37;;;5.60;99.90;;;;;;10398573;28;20292;-81
2022/04/09 01:59:11;;;;;;;6.37;4.77;;;5.70;99.90;;;;;;10397965;28;20229;-82
2022/04/09 02:04:13;;;;;;;4.77;4.47;;;5.70;99.90;;;;;;10398664;28;20206;-81
2022/04/09 02:09:16;;;;;;;5.53;5.13;;;5.70;99.90;;;;;;10398184;28;20292;-81
2022/04/09 02:14:20;;;;;;;5.90;5.30;;;5.80;99.90;;;;;;10380586;28;20724;-80
2022/04/09 02:19:22;;;;;;;4.67;4.40;;;5.80;99.90;;;;;;10373732;28;20222;-81
2022/04/09 02:24:25;;;;;;;5.73;5.30;;;5.70;99.90;;;;;;10398004;28;20233;-81
2022/04/09 02:29:27;;;;;;;5.90;5.50;;;5.70;99.90;;;;;;10397767;28;20218;-81
2022/04/09 02:34:30;;;;;;;5.50;5.10;;;5.80;99.90;;;;;;10396665;28;20217;-81
2022/04/09 02:39:33;;;;;;;5.73;5.30;;;5.80;99.90;;;;;;10386719;28;20222;-81
2022/04/09 02:44:36;;;;;;;5.50;5.20;;;5.90;99.90;;;;;;10398140;28;20244;-81
2022/04/09 02:49:38;;;;;;;5.80;5.43;;;5.90;99.90;;;;;;10415323;28;20245;-80
2022/04/09 02:54:42;;;;;;;6.20;5.80;;;5.90;99.90;;;;;;10398815;28;20236;-80
2022/04/09 02:59:44;;;;;;;6.43;6.03;;;5.90;99.90;;;;;;10379689;28;20577;-81
2022/04/09 03:04:47;;;;;;;5.53;5.23;;;5.90;99.90;;;;;;10378645;28;20709;-81
2022/04/09 03:09:50;;;;;;;5.40;5.10;;;5.90;99.90;;;;;;10420632;28;20209;-81
2022/04/09 03:14:53;;;;;;;6.47;5.87;;;5.90;99.90;;;;;;10406607;28;20214;-80
2022/04/09 03:19:55;;;;;;;5.27;4.67;;;5.80;99.90;;;;;;10391303;28;20218;-80
2022/04/09 03:24:59;;;;;;;5.43;5.13;;;5.80;99.90;;;;;;10384040;28;20194;-81
2022/04/09 03:30:04;;;;;;;5.13;4.83;;;5.80;99.90;;;;;;10406413;22;20587;-81
2022/04/09 03:35:11;;;;;;;5.40;5.10;;;5.90;99.90;;;;;;10383176;28;20645;-80
2022/04/09 03:40:17;;;;;;;5.60;5.20;;;5.90;99.90;;;;;;10384156;28;20222;-82
2022/04/09 03:45:20;;;;;;;6.30;5.90;;;5.90;99.90;;;;;;10397192;28;20222;-79
2022/04/09 03:50:23;;;;;;;7.63;7.03;;;5.90;99.90;;;;;;10406242;28;20229;-82
2022/04/09 03:55:29;;;;;;;8.67;8.03;;;5.90;99.90;;;;;;10392596;28;20283;-79
2022/04/09 04:00:34;;;;;;;10.57;9.57;;;6.00;99.90;;;;;;10383114;28;20218;-81
2022/04/09 04:05:36;;;;;;;10.70;9.70;;;6.00;99.90;;;;;;10400212;28;20198;-81
2022/04/09 04:10:40;;;;;;;12.53;11.43;;;6.10;99.90;;;;;;10399425;28;20226;-79
2022/04/09 04:15:55;;;;;;;13.33;11.60;;;6.10;99.90;;;;;;10383307;28;20193;-79
2022/04/09 04:20:58;;;;;;;13.97;12.57;;;6.10;99.90;;;;;;10399742;28;20217;-81
2022/04/09 04:26:02;;;;;;;12.23;11.13;;;6.10;99.90;;;;;;10382831;28;20232;-79
2022/04/09 04:31:06;;;;;;;16.33;12.77;;;6.10;99.90;;;;;;10383032;28;20253;-80
2022/04/09 04:36:09;;;;;;;14.37;13.00;;;6.10;99.90;;;;;;10382625;28;20604;-80
2022/04/09 04:41:17;;;;;;;14.23;12.90;;;6.00;99.90;;;;;;10400482;28;20281;-79
2022/04/09 04:46:20;;;;;;;17.50;15.70;;;6.00;99.90;;;;;;10398298;28;20201;-80
2022/04/09 04:51:22;;;;;;;14.47;13.03;;;6.00;99.90;;;;;;10412192;28;20237;-79
2022/04/09 04:56:26;;;;;;;14.23;12.93;;;5.80;99.90;;;;;;10383338;28;20350;-81
2022/04/09 05:01:34;;;;;;;16.20;14.07;;;5.80;99.90;;;;;;10387933;28;20686;-81
2022/04/09 05:06:40;;;;;;;14.17;12.00;;;5.70;99.90;;;;;;10388295;28;20198;-81
2022/04/09 05:11:44;;;;;;;16.00;14.00;;;5.70;99.90;;;;;;10404772;28;20693;-81
2022/04/09 05:16:51;;;;;;;13.20;12.00;;;5.80;99.90;;;;;;10404362;28;20498;-81
2022/04/09 05:21:53;;;;;;;13.57;12.30;;;5.80;99.90;;;;;;10402518;28;20300;-80
2022/04/09 05:26:59;;;;;;;12.63;11.43;;;5.90;99.90;;;;;;10398030;28;20264;-83
2022/04/09 05:32:06;;;;;;;13.07;11.87;;;6.00;99.90;;;;;;10380425;28;20721;-80
2022/04/09 05:37:10;;;;;;;12.60;11.40;;;6.00;99.90;;;;;;10382771;28;20190;-80
2022/04/09 05:42:14;;;;;;;11.77;10.67;;;6.00;99.90;;;;;;10401670;28;20214;-80
2022/04/09 05:47:17;;;;;;;12.80;11.53;;;6.00;99.90;;;;;;10400689;28;20285;-80
2022/04/09 05:52:19;;;;;;;13.37;12.17;;;5.90;99.90;;;;;;10396605;28;20297;-80
2022/04/09 05:57:23;;;;;;;13.53;12.13;;;6.00;99.90;;;;;;10396718;28;20657;-82
2022/04/09 06:02:25;;;;;;;13.20;11.23;;;6.10;99.90;;;;;;10382006;28;20214;-80
2022/04/09 06:07:27;;;;;;;12.00;10.80;;;6.20;99.90;;;;;;10387220;28;20208;-81
2022/04/09 06:12:41;;;;;;;11.27;10.17;;;6.30;99.90;;;;;;10404820;28;20628;-81
2022/04/09 06:17:50;;;;;;;12.03;10.90;;;6.30;99.90;;;;;;10404015;28;20623;-81
2022/04/09 06:22:52;;;;;;;11.57;10.43;;;6.40;99.90;;;;;;10403592;28;20209;-81
2022/04/09 06:27:58;;;;;;;9.70;8.80;;;6.30;99.90;;;;;;10387123;28;20201;-81
2022/04/09 06:33:03;;;;;;;15.17;10.37;;;6.30;99.90;;;;;;10388076;28;20217;-81
2022/04/09 06:38:08;;;;;;;10.30;9.00;;;6.30;99.90;;;;;;10387411;28;20201;-81
2022/04/09 06:43:11;;;;;;;9.87;8.40;;;6.30;99.90;;;;;;10402200;28;20218;-81
2022/04/09 06:48:32;;;;;;;10.50;8.87;;;6.30;99.90;;;;;;10425305;28;20729;-81
2022/04/09 06:53:53;;;;;;;9.60;8.77;;;6.40;99.90;;;;;;10417837;28;20218;-80
2022/04/09 06:58:57;;;;;;;9.47;8.67;;;6.50;99.90;;;;;;10381665;28;20267;-79
2022/04/09 07:04:00;;;;;;;8.63;7.83;;;6.70;99.90;;;;;;10384627;28;20662;-82
2022/04/09 07:09:03;;;;;;;8.87;7.97;;;6.80;99.90;;;;;;10381104;28;20218;-80
2022/04/09 07:14:06;;;;;;;11.43;8.20;;;7.00;99.90;;;;;;10414170;28;20300;-80
2022/04/09 07:19:10;;;;;;;8.53;7.63;;;7.10;99.90;;;;;;10382338;28;20276;-82
2022/04/09 07:24:12;;;;;;;8.70;7.90;;;7.20;99.90;;;;;;10402660;28;20220;-81
2022/04/09 07:29:16;;;;;;;8.40;7.47;;;7.50;99.90;;;;;;10396018;28;20225;-82
2022/04/09 07:34:18;;;;;;;8.67;7.00;;;7.60;99.90;;;;;;10405724;28;20210;-81
2022/04/09 07:39:21;;;;;;;8.53;7.50;;;7.80;99.90;;;;;;10390972;28;20218;-82
2022/04/09 07:44:24;;;;;;;8.13;7.33;;;8.10;99.90;;;;;;10389242;28;20221;-82
2022/04/09 07:49:26;;;;;;;11.27;7.80;;;8.30;99.90;;;;;;10392299;28;20217;-82
2022/04/09 07:54:29;;;;;;;7.67;7.00;;;8.50;99.90;;;;;;10409411;28;20637;-81
2022/04/09 07:59:33;;;;;;;7.77;6.30;;;8.60;99.90;;;;;;10388292;28;20226;-81
2022/04/09 08:04:35;;;;;;;6.80;6.20;;;8.80;99.90;;;;;;10402066;28;20544;-82
2022/04/09 08:09:37;;;;;;;7.53;5.90;;;8.80;99.90;;;;;;10405426;28;20255;-81
2022/04/09 08:14:41;;;;;;;7.37;6.67;;;8.60;99.90;;;;;;10378587;28;20650;-81
2022/04/09 08:19:43;;;;;;;6.97;5.50;;;8.50;99.90;;;;;;10395834;28;20268;-81
2022/04/09 08:24:46;;;;;;;5.60;5.10;;;8.40;99.90;;;;;;10385272;28;20209;-81
2022/04/09 08:29:49;;;;;;;7.57;5.07;;;8.40;99.90;;;;;;10401607;28;20237;-81
2022/04/09 08:34:53;;;;;;;6.80;5.90;;;8.40;99.90;;;;;;10403774;28;20241;-81
2022/04/09 08:39:55;;;;;;;5.23;4.73;;;8.50;99.90;;;;;;10389485;28;20245;-82
2022/04/09 08:45:00;;;;;;;6.20;5.57;;;8.60;99.90;;;;;;10405463;28;20240;-81
2022/04/09 08:50:03;;;;;;;8.10;5.10;;;8.50;99.90;;;;;;10384437;28;20316;-81
2022/04/09 08:55:07;;;;;;;7.03;5.30;;;8.40;99.90;;;;;;10389003;28;20218;-80
2022/04/09 09:00:14;;;;;;;6.60;5.83;;;8.30;99.90;;;;;;10398135;28;20591;-80
2022/04/09 09:05:29;;;;;;;7.93;5.40;;;8.50;99.90;;;;;;10418283;28;20205;-81
2022/04/09 09:10:32;;;;;;;9.20;5.90;;;8.60;99.90;;;;;;10398853;28;20721;-82
2022/04/09 09:15:48;;;;;;;12.50;5.93;;;8.90;99.90;;;;;;10414816;28;20220;-81
2022/04/09 09:20:52;;;;;;;5.40;4.90;;;9.30;99.90;;;;;;10388589;28;20217;-81
2022/04/09 09:25:56;;;;;;;5.37;4.87;;;9.30;99.90;;;;;;10389576;28;20205;-81
2022/04/09 09:31:01;;;;;;;5.40;4.90;;;9.40;99.90;;;;;;10391901;28;20291;-81
2022/04/09 09:36:04;;;;;;;5.30;4.70;;;9.50;99.90;;;;;;10392943;28;20213;-81
2022/04/09 09:41:06;;;;;;;6.23;4.40;;;9.80;99.90;;;;;;10399843;28;20213;-81
2022/04/09 09:46:10;;;;;;;5.93;4.57;;;10.30;99.90;;;;;;10400817;28;20198;-79
2022/04/09 09:51:21;;;;;;;4.23;3.93;;;10.50;99.90;;;;;;10392356;28;20232;-80
2022/04/09 09:56:35;;;;;;;6.50;4.33;;;10.60;99.90;;;;;;10420514;23;20284;-84
2022/04/09 10:01:40;;;;;;;5.30;3.90;;;10.60;99.90;;;;;;10379089;28;20605;-85
2022/04/09 10:06:44;;;;;;;6.23;3.90;;;10.80;99.90;;;;;;10324011;28;20247;-84
2022/04/09 10:11:50;;;;;;;5.10;3.90;;;10.90;99.90;;;;;;10336138;28;20234;-83
2022/04/09 10:16:55;;;;;;;3.57;3.27;;;11.10;99.90;;;;;;10334842;28;20244;-81
2022/04/09 10:21:58;;;;;;;6.10;3.93;;;11.10;99.90;;;;;;10348367;28;20285;-81
2022/04/09 10:27:04;;;;;;;5.47;4.00;;;10.90;99.90;;;;;;10320285;28;20203;-81
2022/04/09 10:32:09;;;;;;;4.43;3.33;;;10.60;99.90;;;;;;10335700;28;20683;-82
2022/04/09 10:37:11;;;;;;;6.03;3.50;;;10.40;99.90;;;;;;10337634;28;20234;-82
2022/04/09 10:42:48;;;;;;;3.63;3.30;;;10.30;99.90;;;;;;10337122;28;20211;-81
2022/04/09 10:48:10;;;;;;;5.93;4.97;;;10.30;99.90;;;;;;10354152;28;20207;-82
2022/04/09 10:53:15;;;;;;;7.17;3.47;;;10.50;99.90;;;;;;10346286;28;20223;-83
2022/04/09 10:58:17;;;;;;;5.60;3.30;;;10.60;99.90;;;;;;10339840;28;20571;-83
2022/04/09 11:03:36;;;;;;;4.60;3.00;;;10.70;99.90;;;;;;10351422;28;20211;-83
2022/04/09 11:08:42;;;;;;;3.50;3.13;;;10.70;99.90;;;;;;10375186;28;20198;-82
2022/04/09 11:13:44;;;;;;;5.13;3.20;;;10.60;99.90;;;;;;10346395;28;20611;-82
2022/04/09 11:18:48;;;;;;;3.43;3.13;;;10.50;99.90;;;;;;10344233;28;20261;-82
2022/04/09 11:24:05;;;;;;;3.87;3.30;;;10.40;99.90;;;;;;10354774;28;20620;-82
2022/04/09 11:29:11;;;;;;;3.33;3.00;;;10.30;99.90;;;;;;10319070;28;20191;-82
2022/04/09 11:34:14;;;;;;;5.30;3.37;;;10.20;99.90;;;;;;10341717;28;20286;-82
2022/04/09 11:39:16;;;;;;;5.17;3.40;;;10.10;99.90;;;;;;10346678;28;20203;-82
2022/04/09 11:44:28;;;;;;;6.37;3.50;;;9.90;99.90;;;;;;10352605;28;20217;-82
2022/04/09 11:49:33;;;;;;;3.20;2.70;;;9.70;99.90;;;;;;10358233;28;20215;-85
2022/04/09 11:54:36;;;;;;;4.20;3.80;;;9.60;99.90;;;;;;10341885;28;20690;-84
2022/04/09 11:59:39;;;;;;;7.73;3.60;;;9.80;99.90;;;;;;10332873;28;20250;-82
2022/04/09 12:04:42;;;;;;;4.60;4.20;;;10.00;99.90;;;;;;10335497;28;20235;-82
2022/04/09 12:09:45;;;;;;;5.27;3.83;;;10.10;99.90;;;;;;10338788;28;20844;-82
2022/04/09 12:14:55;;;;;;;8.10;3.90;;;10.10;99.90;;;;;;10351830;28;20258;-82
2022/04/09 12:19:59;;;;;;;6.37;3.97;;;10.20;99.90;;;;;;10338881;28;20199;-82
2022/04/09 12:25:01;;;;;;;4.33;3.50;;;10.30;99.90;;;;;;10340336;28;20211;-82
2022/04/09 12:30:03;;;;;;;4.90;4.40;;;10.30;99.90;;;;;;10344413;28;20210;-82
2022/04/09 12:35:08;;;;;;;5.43;3.77;;;10.30;99.90;;;;;;10342761;28;20223;-82
2022/04/09 12:40:16;;;;;;;5.53;3.80;;;10.30;99.90;;;;;;10314040;28;20195;-83
2022/04/09 12:45:20;;;;;;;5.67;3.13;;;10.30;99.90;;;;;;10330151;28;20219;-81
2022/04/09 12:50:27;;;;;;;4.60;3.63;;;10.10;99.90;;;;;;10340665;28;20195;-81
2022/04/09 12:55:31;;;;;;;4.67;3.57;;;10.00;99.90;;;;;;10337242;28;20718;-81
2022/04/09 13:00:33;;;;;;;3.73;3.20;;;10.10;99.90;;;;;;10339930;28;20195;-82
2022/04/09 13:05:36;;;;;;;5.77;3.77;;;10.30;99.90;;;;;;10327426;28;20219;-81
2022/04/09 13:10:38;;;;;;;4.80;3.33;;;10.30;99.90;;;;;;10333053;28;20226;-82
2022/04/09 13:15:41;;;;;;;4.70;3.50;;;10.30;99.90;;;;;;10325478;28;20792;-81
2022/04/09 13:20:45;;;;;;;3.87;3.53;;;10.10;99.90;;;;;;10324427;28;20262;-81
2022/04/09 13:25:47;;;;;;;4.53;3.10;;;9.90;99.90;;;;;;10325688;28;20230;-81
2022/04/09 13:30:49;;;;;;;3.80;3.50;;;9.90;99.90;;;;;;10332100;28;20203;-81
2022/04/09 13:35:53;;;;;;;4.97;3.47;;;9.90;99.90;;;;;;10330123;28;20235;-81
2022/04/09 13:40:55;;;;;;;5.00;3.70;;;10.10;99.90;;;;;;10308251;28;20203;-82
2022/04/09 13:45:57;;;;;;;3.90;3.33;;;10.20;99.90;;;;;;10308859;28;20216;-80
2022/04/09 13:51:00;;;;;;;4.23;3.30;;;10.40;99.90;;;;;;10323149;28;20207;-81
2022/04/09 13:56:04;;;;;;;4.50;3.27;;;10.50;99.90;;;;;;10305799;28;20865;-81
2022/04/09 14:01:07;;;;;;;3.70;3.40;;;10.50;99.90;;;;;;10324167;28;20551;-78
2022/04/09 14:06:11;;;;;;;3.03;2.40;;;10.60;99.90;;;;;;10325456;28;20552;-81
2022/04/09 14:11:13;;;;;;;3.20;2.97;;;10.60;99.90;;;;;;10332218;28;20202;-81
2022/04/09 14:16:15;;;;;;;7.93;3.67;;;10.70;99.90;;;;;;10331409;28;20500;-81
2022/04/09 14:21:19;;;;;;;4.00;3.70;;;10.80;99.90;;;;;;10322449;28;20211;-81
2022/04/09 14:26:21;;;;;;;4.90;3.00;;;10.90;99.90;;;;;;10326020;28;20219;-82
2022/04/09 14:31:25;;;;;;;7.10;2.93;;;10.80;99.90;;;;;;10322063;28;20306;-80
2022/04/09 14:36:28;;;;;;;4.10;3.10;;;10.90;99.90;;;;;;10328459;28;20230;-80
2022/04/09 14:41:30;;;;;;;4.40;3.53;;;11.00;99.90;;;;;;10335554;28;20222;-79
2022/04/09 14:46:33;;;;;;;3.30;3.10;;;11.00;99.90;;;;;;10329283;28;20225;-80
2022/04/09 14:51:37;;;;;;;3.37;3.10;;;10.90;99.90;;;;;;10329930;28;20269;-80
2022/04/09 14:56:39;;;;;;;3.80;3.40;;;10.90;99.90;;;;;;10333317;28;20261;-80
2022/04/09 15:01:41;;;;;;;7.23;3.83;;;10.90;99.90;;;;;;10321183;28;20218;-80
2022/04/09 15:06:44;;;;;;;5.10;3.30;;;10.90;99.90;;;;;;10328763;28;20184;-78
2022/04/09 15:11:47;;;;;;;4.83;3.70;;;10.90;99.90;;;;;;10331373;28;20214;-82
2022/04/09 15:16:49;;;;;;;4.23;3.17;;;10.80;99.90;;;;;;10329917;28;20251;-82
2022/04/09 15:21:52;;;;;;;3.40;3.10;;;10.80;99.90;;;;;;10334542;28;20207;-82
2022/04/09 15:26:54;;;;;;;5.10;2.60;;;10.90;99.90;;;;;;10334427;28;20327;-82
2022/04/09 15:31:56;;;;;;;3.23;2.97;;;11.00;99.90;;;;;;10329669;28;20199;-81
2022/04/09 15:37:00;;;;;;;4.07;3.20;;;11.10;99.90;;;;;;10321138;28;20231;-81
2022/04/09 15:42:02;;;;;;;4.27;2.97;;;10.90;99.90;;;;;;10311100;28;20231;-81
2022/04/09 15:47:05;;;;;;;3.60;3.10;;;10.70;99.90;;;;;;10328505;28;20203;-81
2022/04/09 15:52:08;;;;;;;3.70;3.33;;;10.60;99.90;;;;;;10368826;22;20227;-81
2022/04/09 15:57:11;;;;;;;3.50;3.20;;;10.50;99.90;;;;;;10356071;28;20321;-80
2022/04/09 16:02:14;;;;;;;3.60;3.00;;;10.30;99.90;;;;;;10373530;28;20273;-81
2022/04/09 16:07:18;;;;;;;3.50;3.10;;;10.30;99.90;;;;;;10306513;28;20207;-80
2022/04/09 16:12:20;;;;;;;5.53;3.10;;;10.30;99.90;;;;;;10308136;28;20706;-81
2022/04/09 16:17:22;;;;;;;3.27;2.97;;;10.30;99.90;;;;;;10337498;28;20243;-82
2022/04/09 16:22:26;;;;;;;7.13;2.60;;;10.20;99.90;;;;;;10313144;28;20361;-80
2022/04/09 16:27:28;;;;;;;7.40;2.50;;;10.30;99.90;;;;;;10311560;28;20290;-81
2022/04/09 16:32:30;;;;;;;2.70;2.50;;;10.30;99.90;;;;;;10297727;28;20227;-81
2022/04/09 16:37:34;;;;;;;2.80;2.40;;;10.40;99.90;;;;;;10314611;28;20231;-80
2022/04/09 16:42:36;;;;;;;3.37;2.73;;;10.50;99.90;;;;;;10318233;28;20596;-80
2022/04/09 16:47:40;;;;;;;2.63;2.43;;;10.40;99.90;;;;;;10335814;28;20195;-80
2022/04/09 16:52:44;;;;;;;4.33;3.40;;;10.40;99.90;;;;;;10311808;28;20637;-81
2022/04/09 16:57:46;;;;;;;5.10;3.43;;;10.40;99.90;;;;;;10319981;28;20250;-83
2022/04/09 17:02:48;;;;;;;4.60;3.60;;;10.40;99.90;;;;;;10320553;28;20231;-82
2022/04/09 17:07:52;;;;;;;3.60;2.77;;;10.40;99.90;;;;;;10292801;28;20204;-81
2022/04/09 17:12:54;;;;;;;3.90;2.50;;;10.30;99.90;;;;;;10316338;28;20227;-81
2022/04/09 17:17:56;;;;;;;5.03;2.90;;;10.30;99.90;;;;;;10347488;28;20219;-81
2022/04/09 17:23:02;;;;;;;5.20;2.30;;;10.30;99.90;;;;;;10343253;28;20231;-81
2022/04/09 17:28:07;;;;;;;3.37;2.40;;;10.20;99.90;;;;;;10329490;28;20195;-82
2022/04/09 17:33:12;;;;;;;2.70;2.50;;;10.20;99.90;;;;;;10352803;28;20249;-82
2022/04/09 17:38:16;;;;;;;2.87;2.67;;;10.20;99.90;;;;;;10352641;28;20211;-83
2022/04/09 17:43:18;;;;;;;6.80;4.57;;;10.10;99.90;;;;;;10349312;28;20223;-83
2022/04/09 17:48:20;;;;;;;3.93;3.57;;;10.00;99.90;;;;;;10353660;28;20207;-83
2022/04/09 17:53:26;;;;;;;3.30;2.70;;;9.90;99.90;;;;;;10325902;28;20239;-79
2022/04/09 17:58:28;;;;;;;4.27;2.17;;;9.90;99.90;;;;;;10341738;28;20215;-82
2022/04/09 18:03:32;;;;;;;4.30;3.40;;;9.70;99.90;;;;;;10366927;28;20226;-82
2022/04/09 18:08:36;;;;;;;3.80;3.23;;;9.60;99.90;;;;;;10342048;28;20230;-82
2022/04/09 18:13:40;;;;;;;4.40;2.90;;;9.50;99.90;;;;;;10359915;28;20229;-82
2022/04/09 18:18:42;;;;;;;2.83;2.63;;;9.50;99.90;;;;;;10358111;28;20210;-83
2022/04/09 18:23:46;;;;;;;3.00;2.80;;;9.40;99.90;;;;;;10332891;28;20251;-83
2022/04/09 18:28:48;;;;;;;4.10;3.20;;;9.30;99.90;;;;;;10328487;28;20195;-82
2022/04/09 18:33:50;;;;;;;4.63;3.13;;;9.30;99.90;;;;;;10335642;28;20313;-83
2022/04/09 18:38:53;;;;;;;5.10;4.10;;;9.30;99.90;;;;;;10316793;28;20210;-83
2022/04/09 18:43:56;;;;;;;5.50;5.00;;;9.20;99.90;;;;;;10323728;28;20226;-82
2022/04/09 18:48:58;;;;;;;3.50;2.90;;;9.10;99.90;;;;;;10366252;28;20577;-82
2022/04/09 18:54:01;;;;;;;4.77;4.30;;;9.00;99.90;;;;;;10333800;28;20220;-83
2022/04/09 18:59:05;;;;;;;5.63;5.03;;;8.90;99.90;;;;;;10326137;28;20215;-82
2022/04/09 19:04:07;;;;;;;5.43;4.93;;;8.90;99.90;;;;;;10318356;28;20239;-82
2022/04/09 19:09:11;;;;;;;7.07;5.03;;;8.70;99.90;;;;;;10325931;28;20249;-82
2022/04/09 19:14:14;;;;;;;7.00;6.20;;;8.60;99.90;;;;;;10333364;28;20279;-82
2022/04/09 19:19:16;;;;;;;7.40;6.70;;;8.50;99.90;;;;;;10362434;28;20274;-82
2022/04/09 19:24:19;;;;;;;8.00;7.30;;;8.40;99.90;;;;;;10334654;28;20231;-82
2022/04/09 19:29:22;;;;;;;6.50;5.77;;;8.30;99.90;;;;;;10334594;28;20553;-82
2022/04/09 19:34:24;;;;;;;6.33;4.50;;;8.20;99.90;;;;;;10333281;28;20208;-82
2022/04/09 19:39:28;;;;;;;3.50;3.20;;;8.10;99.90;;;;;;10344448;28;20204;-82
2022/04/09 19:44:31;;;;;;;4.10;3.73;;;8.00;99.90;;;;;;10347775;28;20234;-82
2022/04/09 19:49:34;;;;;;;4.17;3.77;;;8.00;99.90;;;;;;10343842;28;20263;-83
2022/04/09 19:54:37;;;;;;;5.97;4.27;;;8.00;99.90;;;;;;10337800;28;20251;-82
2022/04/09 19:59:39;;;;;;;3.63;3.30;;;8.10;99.90;;;;;;10362687;28;20219;-82
2022/04/09 20:04:44;;;;;;;3.90;3.47;;;8.10;99.90;;;;;;10333192;28;20270;-83
2022/04/09 20:09:47;;;;;;;4.97;3.60;;;8.20;99.90;;;;;;10329411;28;20230;-82
2022/04/09 20:14:50;;;;;;;4.60;3.23;;;8.30;99.90;;;;;;10331681;28;20252;-82
2022/04/09 20:19:52;;;;;;;3.40;3.20;;;8.40;99.90;;;;;;10358204;28;20234;-82
2022/04/09 20:24:56;;;;;;;3.37;3.07;;;8.40;99.90;;;;;;10331532;28;20212;-82
2022/04/09 20:29:58;;;;;;;4.97;3.60;;;8.50;99.90;;;;;;10346865;28;20199;-82
2022/04/09 20:35:00;;;;;;;3.80;3.27;;;8.40;99.90;;;;;;10327781;28;20220;-83
2022/04/09 20:40:05;;;;;;;2.90;2.60;;;8.40;99.90;;;;;;10285338;28;20579;-84
2022/04/09 20:45:08;;;;;;;1.90;1.80;;;8.30;99.90;;;;;;10324457;28;20302;-83
2022/04/09 20:50:10;;;;;;;3.00;2.03;;;8.30;99.90;;;;;;10323799;28;20231;-83
2022/04/09 20:55:14;;;;;;;2.67;2.20;;;8.20;99.90;;;;;;10318143;28;20224;-83
2022/04/09 21:00:16;;;;;;;2.30;2.10;;;8.10;99.90;;;;;;10320365;28;20261;-82
2022/04/09 21:05:19;;;;;;;3.53;2.60;;;7.90;99.90;;;;;;10316412;28;20231;-83
2022/04/09 21:10:22;;;;;;;2.43;2.23;;;7.70;99.90;;;;;;10335039;28;20222;-83
2022/04/09 21:15:24;;;;;;;4.10;2.70;;;7.70;99.90;;;;;;10316528;28;20222;-85
2022/04/09 21:20:27;;;;;;;2.90;2.57;;;7.70;99.90;;;;;;10353777;28;20559;-83
2022/04/09 21:25:30;;;;;;;2.90;2.70;;;7.70;99.90;;;;;;10335174;28;20258;-83
2022/04/09 21:30:35;;;;;;;3.03;2.80;;;7.70;99.90;;;;;;10319093;28;20209;-83
2022/04/09 21:35:37;;;;;;;4.43;2.80;;;7.70;99.90;;;;;;10350897;28;20238;-83
2022/04/09 21:40:41;;;;;;;3.23;3.03;;;7.70;99.90;;;;;;10339261;28;20200;-82
2022/04/09 21:45:43;;;;;;;2.93;2.70;;;7.80;99.90;;;;;;10316481;28;20672;-82
2022/04/09 21:50:45;;;;;;;5.23;3.03;;;7.80;99.90;;;;;;10310843;28;20195;-83
2022/04/09 21:55:49;;;;;;;6.07;3.00;;;7.80;99.90;;;;;;10403356;22;20222;-79
2022/04/09 22:00:58;;;;;;;4.23;2.90;;;7.80;99.90;;;;;;10386949;28;20202;-81
2022/04/09 22:06:00;;;;;;;3.30;3.03;;;7.80;99.90;;;;;;10406999;28;20675;-78
2022/04/09 22:11:03;;;;;;;2.60;2.50;;;7.80;99.90;;;;;;10393116;28;20206;-80
2022/04/09 22:16:06;;;;;;;3.00;2.80;;;7.70;99.90;;;;;;10410195;28;20225;-80
2022/04/09 22:21:08;;;;;;;4.37;3.10;;;7.70;99.90;;;;;;10392052;28;20199;-80
2022/04/09 22:26:12;;;;;;;3.40;3.20;;;7.60;99.90;;;;;;10384655;28;20222;-80
2022/04/09 22:31:15;;;;;;;3.60;3.30;;;7.50;99.90;;;;;;10413020;28;20183;-79
2022/04/09 22:36:17;;;;;;;3.20;2.90;;;7.50;99.90;;;;;;10378171;28;20690;-80
2022/04/09 22:41:20;;;;;;;3.17;2.83;;;7.40;99.90;;;;;;10407200;28;20278;-80
2022/04/09 22:46:22;;;;;;;3.60;3.40;;;7.40;99.90;;;;;;10380712;28;20233;-81
2022/04/09 22:51:25;;;;;;;5.63;3.60;;;7.40;99.90;;;;;;10377720;28;20198;-81
2022/04/09 22:56:28;;;;;;;4.00;3.60;;;7.40;99.90;;;;;;10363866;28;20277;-82
2022/04/09 23:01:30;;;;;;;4.03;3.73;;;7.40;99.90;;;;;;10416936;28;20199;-81
2022/04/09 23:06:32;;;;;;;4.77;3.90;;;7.50;99.90;;;;;;10388808;28;20233;-80
2022/04/09 23:11:36;;;;;;;5.20;4.33;;;7.50;99.90;;;;;;10419985;28;20518;-80
2022/04/09 23:16:38;;;;;;;4.53;4.03;;;7.50;99.90;;;;;;10367990;28;20221;-80
2022/04/09 23:21:40;;;;;;;4.33;3.93;;;7.40;99.90;;;;;;10412997;28;20262;-80
2022/04/09 23:26:44;;;;;;;4.60;4.10;;;7.40;99.90;;;;;;10373018;28;20217;-81
2022/04/09 23:31:46;;;;;;;9.30;4.60;;;7.40;99.90;;;;;;10408023;28;20626;-80
2022/04/09 23:36:48;;;;;;;4.37;3.97;;;7.40;99.90;;;;;;10382577;28;20301;-79
2022/04/09 23:41:52;;;;;;;4.53;4.13;;;7.40;99.90;;;;;;10418836;28;20222;-79
2022/04/09 23:46:54;;;;;;;4.60;4.20;;;7.30;99.90;;;;;;10362731;28;20693;-79
2022/04/09 23:51:56;;;;;;;4.10;3.80;;;7.30;99.90;;;;;;10417276;28;20658;-80
2022/04/09 23:56:59;;;;;;;5.80;3.90;;;7.30;99.90;;;;;;10360373;28;20760;-80
